createdAt,value
2022-10-16T00:01:51.109Z,100114.03
2022-10-16T00:04:19.990Z,100106.41
2022-10-16T00:06:50.076Z,100126.50
2022-10-16T00:09:18.584Z,100122.38
2022-10-16T00:11:47.386Z,100125.69
2022-10-16T00:14:17.655Z,100126.03
2022-10-16T00:16:46.154Z,100110.25
2022-10-16T00:19:15.052Z,100121.06
2022-10-16T00:21:45.066Z,100119.19
2022-10-16T00:24:15.066Z,100120.72
2022-10-16T00:26:43.579Z,100125.84
2022-10-16T00:29:12.259Z,100116.38
2022-10-16T00:31:41.082Z,100128.34
2022-10-16T00:34:09.587Z,100124.84
2022-10-16T00:36:38.500Z,100118.84
2022-10-16T00:39:07.006Z,100121.72
2022-10-16T00:41:37.154Z,100119.84
2022-10-16T00:44:27.326Z,100117.38
2022-10-16T00:46:56.420Z,100119.38
2022-10-16T00:49:24.948Z,100129.69
2022-10-16T00:51:56.068Z,100121.06
2022-10-16T00:54:27.907Z,100115.41
2022-10-16T00:57:00.466Z,100122.06
2022-10-16T00:59:31.370Z,100126.72
2022-10-16T01:02:01.249Z,100124.72
2022-10-16T01:04:33.599Z,100129.38
2022-10-16T01:07:09.275Z,100127.53
2022-10-16T01:09:47.906Z,100123.41
2022-10-16T01:12:24.504Z,100125.06
2022-10-16T01:15:00.007Z,100126.41
2022-10-16T01:17:35.829Z,100123.72
2022-10-16T01:20:12.850Z,100122.25
2022-10-16T01:22:50.551Z,100100.50
2022-10-16T01:25:28.035Z,100109.13
2022-10-16T01:27:59.825Z,100124.75
2022-10-16T01:30:32.896Z,100126.41
2022-10-16T01:33:06.716Z,100135.06
2022-10-16T01:35:39.863Z,100135.88
2022-10-16T01:38:15.611Z,100127.75
2022-10-16T01:40:48.835Z,100110.09
2022-10-16T01:43:22.955Z,100113.09
2022-10-16T01:45:52.277Z,100117.72
2022-10-16T01:48:22.487Z,100106.75
2022-10-16T01:51:00.996Z,100113.41
2022-10-16T01:53:30.203Z,100118.22
2022-10-16T01:56:00.844Z,100118.06
2022-10-16T01:58:35.933Z,100125.41
2022-10-16T02:01:06.849Z,100134.38
2022-10-16T02:03:36.954Z,100126.88
2022-10-16T02:06:05.536Z,100133.03
2022-10-16T02:08:34.531Z,100123.41
2022-10-16T02:11:04.048Z,100125.06
2022-10-16T02:13:40.002Z,100123.72
2022-10-16T02:16:09.715Z,100123.06
2022-10-16T02:18:38.409Z,100134.34
2022-10-16T02:21:16.608Z,100137.03
2022-10-16T02:23:51.662Z,100136.38
2022-10-16T02:26:33.141Z,100136.03
2022-10-16T02:29:11.761Z,100137.03
2022-10-16T02:31:44.440Z,100139.84
2022-10-16T02:34:14.977Z,100146.66
2022-10-16T02:36:44.992Z,100154.66
2022-10-16T02:39:14.087Z,100152.00
2022-10-16T02:41:42.715Z,100156.31
2022-10-16T02:44:12.603Z,100165.13
2022-10-16T02:46:41.091Z,100166.97
2022-10-16T02:49:09.691Z,100148.00
2022-10-16T02:51:38.257Z,100156.31
2022-10-16T02:54:06.875Z,100159.63
2022-10-16T02:56:35.687Z,100157.78
2022-10-16T02:59:04.370Z,100156.44
2022-10-16T03:01:34.406Z,100154.78
2022-10-16T03:04:03.261Z,100165.97
2022-10-16T03:06:31.752Z,100160.66
2022-10-16T03:09:00.545Z,100160.66
2022-10-16T03:11:29.436Z,100155.13
2022-10-16T03:13:58.034Z,100168.94
2022-10-16T03:16:26.619Z,100171.63
2022-10-16T03:18:56.755Z,100178.25
2022-10-16T03:21:25.532Z,100172.28
2022-10-16T03:23:54.215Z,100177.25
2022-10-16T03:26:22.802Z,100180.59
2022-10-16T03:28:51.650Z,100178.72
2022-10-16T03:31:20.118Z,100187.22
2022-10-16T03:33:48.580Z,100184.38
2022-10-16T03:36:18.933Z,100188.53
2022-10-16T03:38:47.592Z,100191.88
2022-10-16T03:41:16.201Z,100182.53
2022-10-16T03:43:44.793Z,100191.53
2022-10-16T03:46:13.363Z,100178.53
2022-10-16T03:48:42.302Z,100193.50
2022-10-16T03:51:10.784Z,100202.34
2022-10-16T03:53:40.680Z,100204.00
2022-10-16T03:56:09.353Z,100188.50
2022-10-16T03:58:37.757Z,100192.16
2022-10-16T04:01:06.370Z,100200.81
2022-10-16T04:03:34.989Z,100193.47
2022-10-16T04:06:03.565Z,100192.16
2022-10-16T04:08:32.612Z,100197.81
2022-10-16T04:11:02.633Z,100200.16
2022-10-16T04:13:31.304Z,100200.97
2022-10-16T04:15:59.900Z,100192.84
2022-10-16T04:18:29.220Z,100205.50
2022-10-16T04:20:57.692Z,100211.63
2022-10-16T04:23:26.094Z,100215.50
2022-10-16T04:25:54.699Z,100213.16
2022-10-16T04:28:24.837Z,100212.31
2022-10-16T04:30:53.378Z,100205.19
2022-10-16T04:33:21.805Z,100215.97
2022-10-16T04:35:50.376Z,100210.50
2022-10-16T04:38:18.853Z,100213.31
2022-10-16T04:40:47.325Z,100206.53
2022-10-16T04:43:15.809Z,100222.16
2022-10-16T04:45:45.754Z,100221.31
2022-10-16T04:48:14.445Z,100232.81
2022-10-16T04:50:43.848Z,100234.81
2022-10-16T04:53:12.323Z,100239.97
2022-10-16T04:55:40.827Z,100238.81
2022-10-16T04:58:09.597Z,100242.47
2022-10-16T05:00:39.520Z,100237.63
2022-10-16T05:03:10.219Z,100219.53
2022-10-16T05:05:39.273Z,100225.31
2022-10-16T05:08:07.754Z,100223.66
2022-10-16T05:10:36.242Z,100233.50
2022-10-16T05:13:04.814Z,100232.31
2022-10-16T05:15:33.464Z,100243.97
2022-10-16T05:18:02.015Z,100245.31
2022-10-16T05:20:32.073Z,100246.97
2022-10-16T05:23:01.115Z,100250.81
2022-10-16T05:25:29.711Z,100257.94
2022-10-16T05:27:58.197Z,100244.81
2022-10-16T05:30:26.697Z,100240.84
2022-10-16T05:32:55.219Z,100250.16
2022-10-16T05:35:24.380Z,100250.16
2022-10-16T05:37:55.380Z,100248.50
2022-10-16T05:40:24.223Z,100248.50
2022-10-16T05:42:56.782Z,100246.16
2022-10-16T05:45:25.366Z,100256.63
2022-10-16T05:47:53.913Z,100248.81
2022-10-16T05:50:22.406Z,100239.50
2022-10-16T05:52:50.853Z,100248.50
2022-10-16T05:55:20.763Z,100245.84
2022-10-16T05:57:49.239Z,100259.13
2022-10-16T06:00:17.884Z,100251.16
2022-10-16T06:02:46.319Z,100260.28
2022-10-16T06:05:14.820Z,100263.44
2022-10-16T06:07:43.201Z,100274.09
2022-10-16T06:10:11.885Z,100278.75
2022-10-16T06:12:41.805Z,100280.91
2022-10-16T06:15:11.153Z,100279.41
2022-10-16T06:17:39.547Z,100260.78
2022-10-16T06:20:08.996Z,100282.03
2022-10-16T06:22:37.783Z,100293.03
2022-10-16T06:25:07.402Z,100282.53
2022-10-16T06:27:35.882Z,100290.66
2022-10-16T06:30:06.568Z,100289.47
2022-10-16T06:32:35.060Z,100295.09
2022-10-16T06:35:04.030Z,100294.09
2022-10-16T06:37:32.545Z,100298.91
2022-10-16T06:40:01.741Z,100299.41
2022-10-16T06:42:30.179Z,100304.84
2022-10-16T06:44:58.770Z,100310.16
2022-10-16T06:47:30.152Z,100311.66
2022-10-16T06:49:58.591Z,100312.63
2022-10-16T06:52:27.529Z,100315.13
2022-10-16T06:54:56.602Z,100324.44
2022-10-16T06:57:25.484Z,100325.75
2022-10-16T06:59:55.381Z,100333.22
2022-10-16T07:02:24.367Z,100338.06
2022-10-16T07:04:54.523Z,100338.50
2022-10-16T07:07:25.892Z,100337.50
2022-10-16T07:09:54.409Z,100341.84
2022-10-16T07:12:22.985Z,100344.66
2022-10-16T07:14:53.354Z,100354.97
2022-10-16T07:17:22.135Z,100350.28
2022-10-16T07:19:50.700Z,100351.75
2022-10-16T07:22:20.931Z,100337.09
2022-10-16T07:24:52.579Z,100341.97
2022-10-16T07:27:23.930Z,100356.75
2022-10-16T07:29:52.503Z,100359.25
2022-10-16T07:32:20.923Z,100365.25
2022-10-16T07:34:49.558Z,100357.06
2022-10-16T07:37:19.530Z,100357.72
2022-10-16T07:39:48.122Z,100358.00
2022-10-16T07:42:16.695Z,100357.50
2022-10-16T07:44:45.185Z,100358.81
2022-10-16T07:47:13.898Z,100360.09
2022-10-16T07:49:42.877Z,100357.09
2022-10-16T07:52:11.478Z,100366.03
2022-10-16T07:54:41.539Z,100355.38
2022-10-16T07:57:10.222Z,100357.63
2022-10-16T07:59:38.685Z,100360.59
2022-10-16T08:02:07.459Z,100365.22
2022-10-16T08:04:36.034Z,100368.16
2022-10-16T08:07:04.675Z,100374.84
2022-10-16T08:09:33.214Z,100362.44
2022-10-16T08:12:03.490Z,100364.75
2022-10-16T08:14:31.930Z,100364.88
2022-10-16T08:17:00.459Z,100367.47
2022-10-16T08:19:28.963Z,100375.56
2022-10-16T08:21:57.400Z,100373.19
2022-10-16T08:24:26.141Z,100380.47
2022-10-16T08:26:56.530Z,100374.47
2022-10-16T08:29:26.545Z,100381.41
2022-10-16T08:31:55.016Z,100385.66
2022-10-16T08:34:23.569Z,100388.16
2022-10-16T08:36:52.055Z,100392.78
2022-10-16T08:39:20.593Z,100389.56
2022-10-16T08:42:07.532Z,100394.19
2022-10-16T08:45:08.628Z,100395.47
2022-10-16T08:47:47.546Z,100396.41
2022-10-16T08:50:21.177Z,100393.16
2022-10-16T08:52:49.840Z,100393.63
2022-10-16T08:55:30.968Z,100406.66
2022-10-16T08:57:59.721Z,100409.78
2022-10-16T09:00:30.297Z,100397.91
2022-10-16T09:03:10.178Z,100409.88
2022-10-16T09:06:02.734Z,100416.53
2022-10-16T09:08:38.226Z,100408.78
2022-10-16T09:11:14.114Z,100417.06
2022-10-16T09:13:51.076Z,100411.53
2022-10-16T09:16:25.923Z,100420.94
2022-10-16T09:19:01.182Z,100426.56
2022-10-16T09:21:32.422Z,100424.97
2022-10-16T09:24:07.459Z,100422.38
2022-10-16T09:26:35.861Z,100421.25
2022-10-16T09:29:05.916Z,100423.38
2022-10-16T09:31:39.642Z,100439.13
2022-10-16T09:34:20.000Z,100427.47
2022-10-16T09:36:49.057Z,100429.41
2022-10-16T09:39:17.431Z,100430.75
2022-10-16T09:41:47.841Z,100429.34
2022-10-16T09:44:24.208Z,100423.69
2022-10-16T09:47:04.021Z,100428.47
2022-10-16T09:49:32.563Z,100429.72
2022-10-16T09:52:08.112Z,100433.13
2022-10-16T09:54:36.490Z,100427.81
2022-10-16T09:57:11.838Z,100420.03
2022-10-16T09:59:49.082Z,100421.56
2022-10-16T10:02:21.065Z,100420.94
2022-10-16T10:04:55.357Z,100425.16
2022-10-16T10:07:28.416Z,100420.22
2022-10-16T10:09:59.386Z,100421.50
2022-10-16T10:12:30.509Z,100424.53
2022-10-16T10:15:00.461Z,100422.34
2022-10-16T10:17:31.547Z,100423.84
2022-10-16T10:20:02.453Z,100424.34
2022-10-16T10:22:42.742Z,100415.72
2022-10-16T10:25:37.578Z,100425.31
2022-10-16T10:28:23.338Z,100423.53
2022-10-16T10:30:59.276Z,100424.66
2022-10-16T10:33:36.012Z,100427.16
2022-10-16T10:36:17.721Z,100423.88
2022-10-16T10:38:52.829Z,100426.78
2022-10-16T10:41:38.567Z,100431.91
2022-10-16T10:44:20.593Z,100430.88
2022-10-16T10:46:54.257Z,100430.84
2022-10-16T10:49:37.779Z,100426.88
2022-10-16T10:52:35.214Z,100432.25
2022-10-16T10:55:15.565Z,100427.63
2022-10-16T10:57:55.923Z,100416.78
2022-10-16T11:00:30.772Z,100422.53
2022-10-16T11:03:11.997Z,100426.84
2022-10-16T11:05:44.815Z,100426.78
2022-10-16T11:08:19.857Z,100418.00
2022-10-16T11:10:54.869Z,100419.66
2022-10-16T11:13:31.680Z,100431.63
2022-10-16T11:16:04.366Z,100419.56
2022-10-16T11:18:39.592Z,100411.25
2022-10-16T11:21:12.849Z,100415.38
2022-10-16T11:23:45.382Z,100418.91
2022-10-16T11:26:20.509Z,100421.13
2022-10-16T11:28:51.959Z,100425.63
2022-10-16T11:31:30.167Z,100412.34
2022-10-16T11:34:08.537Z,100427.34
2022-10-16T11:36:45.060Z,100416.63
2022-10-16T11:39:28.572Z,100408.88
2022-10-16T11:42:02.353Z,100408.94
2022-10-16T11:44:44.992Z,100420.09
2022-10-16T11:47:46.730Z,100414.28
2022-10-16T11:50:25.265Z,100421.00
2022-10-16T11:53:03.779Z,100415.13
2022-10-16T11:55:41.753Z,100411.31
2022-10-16T11:58:24.324Z,100401.50
2022-10-16T12:01:02.923Z,100395.94
2022-10-16T12:03:38.430Z,100408.94
2022-10-16T12:06:22.323Z,100419.75
2022-10-16T12:08:53.414Z,100418.78
2022-10-16T12:11:37.529Z,100424.88
2022-10-16T12:14:21.905Z,100426.34
2022-10-16T12:16:56.511Z,100417.22
2022-10-16T12:19:26.990Z,100422.25
2022-10-16T12:21:58.803Z,100429.13
2022-10-16T12:24:38.977Z,100438.34
2022-10-16T12:27:22.877Z,100448.09
2022-10-16T12:29:58.442Z,100454.16
2022-10-16T12:32:48.055Z,100455.81
2022-10-16T12:35:23.479Z,100456.91
2022-10-16T12:37:53.274Z,100464.78
2022-10-16T12:40:33.505Z,100469.38
2022-10-16T12:43:02.054Z,100477.88
2022-10-16T12:45:33.446Z,100476.19
2022-10-16T12:48:03.973Z,100474.75
2022-10-16T12:50:36.681Z,100478.09
2022-10-16T12:53:19.615Z,100471.88
2022-10-16T12:56:00.308Z,100471.88
2022-10-16T12:58:54.333Z,100478.94
2022-10-16T13:01:43.312Z,100481.84
2022-10-16T13:04:43.458Z,100480.19
2022-10-16T13:07:31.693Z,100479.34
2022-10-16T13:10:13.072Z,100482.25
2022-10-16T13:13:04.067Z,100481.63
2022-10-16T13:15:43.836Z,100481.00
2022-10-16T13:18:18.379Z,100490.13
2022-10-16T13:21:03.622Z,100488.66
2022-10-16T13:23:40.675Z,100480.19
2022-10-16T13:26:21.078Z,100491.38
2022-10-16T13:28:51.700Z,100487.00
2022-10-16T13:31:25.123Z,100497.38
2022-10-16T13:33:56.609Z,100498.22
2022-10-16T13:36:26.647Z,100499.66
2022-10-16T13:39:14.689Z,100493.44
2022-10-16T13:41:43.817Z,100491.59
2022-10-16T13:44:23.297Z,100481.63
2022-10-16T13:47:01.292Z,100493.25
2022-10-16T13:49:29.844Z,100500.28
2022-10-16T13:52:00.248Z,100507.31
2022-10-16T13:54:31.113Z,100505.03
2022-10-16T13:57:26.209Z,100504.59
2022-10-16T13:59:58.290Z,100507.91
2022-10-16T14:02:31.552Z,100505.78
2022-10-16T14:05:01.047Z,100507.63
2022-10-16T14:07:32.405Z,100506.13
2022-10-16T14:10:06.310Z,100503.59
2022-10-16T14:12:35.723Z,100510.47
2022-10-16T14:15:06.596Z,100513.91
2022-10-16T14:17:37.638Z,100527.16
2022-10-16T14:20:08.723Z,100527.53
2022-10-16T14:22:41.232Z,100524.34
2022-10-16T14:25:30.205Z,100531.81
2022-10-16T14:28:04.558Z,100539.06
2022-10-16T14:30:37.597Z,100531.19
2022-10-16T14:33:07.718Z,100532.41
2022-10-16T14:35:38.425Z,100529.09
2022-10-16T14:38:09.109Z,100533.28
2022-10-16T14:40:39.685Z,100527.09
2022-10-16T14:43:08.317Z,100530.72
2022-10-16T14:45:39.690Z,100534.25
2022-10-16T14:48:19.707Z,100537.16
2022-10-16T14:50:48.639Z,100536.09
2022-10-16T14:53:17.323Z,100538.63
2022-10-16T14:55:46.234Z,100535.97
2022-10-16T14:58:18.385Z,100537.84
2022-10-16T15:00:51.781Z,100536.41
2022-10-16T15:03:20.321Z,100545.53
2022-10-16T15:05:48.850Z,100549.69
2022-10-16T15:08:17.677Z,100555.53
2022-10-16T15:10:46.904Z,100550.78
2022-10-16T15:13:16.170Z,100544.78
2022-10-16T15:15:46.233Z,100552.03
2022-10-16T15:18:22.465Z,100541.88
2022-10-16T15:20:51.678Z,100551.88
2022-10-16T15:23:22.061Z,100546.69
2022-10-16T15:25:52.212Z,100548.34
2022-10-16T15:28:22.059Z,100551.03
2022-10-16T15:30:52.979Z,100553.53
2022-10-16T15:33:25.036Z,100553.31
2022-10-16T15:35:55.226Z,100549.81
2022-10-16T15:38:24.684Z,100555.00
2022-10-16T15:40:53.257Z,100555.78
2022-10-16T15:43:21.811Z,100553.13
2022-10-16T15:46:01.231Z,100561.38
2022-10-16T15:48:32.180Z,100565.53
2022-10-16T15:51:00.983Z,100557.66
2022-10-16T15:53:29.505Z,100568.81
2022-10-16T15:55:58.366Z,100562.34
2022-10-16T15:58:27.002Z,100575.78
2022-10-16T16:00:58.766Z,100581.97
2022-10-16T16:03:27.658Z,100590.25
2022-10-16T16:05:58.000Z,100590.25
2022-10-16T16:08:26.770Z,100591.28
2022-10-16T16:11:02.024Z,100602.41
2022-10-16T16:13:30.967Z,100596.81
2022-10-16T16:16:00.020Z,100604.47
2022-10-16T16:18:29.870Z,100609.00
2022-10-16T16:20:59.757Z,100613.56
2022-10-16T16:23:28.329Z,100619.97
2022-10-16T16:26:10.988Z,100623.06
2022-10-16T16:28:39.848Z,100624.84
2022-10-16T16:31:08.841Z,100628.94
2022-10-16T16:33:37.883Z,100639.81
2022-10-16T16:36:13.109Z,100623.91
2022-10-16T16:38:43.956Z,100636.72
2022-10-16T16:41:16.301Z,100632.03
2022-10-16T16:43:44.894Z,100638.66
2022-10-16T16:46:13.933Z,100638.50
2022-10-16T16:48:42.875Z,100639.06
2022-10-16T16:51:17.157Z,100640.00
2022-10-16T16:53:49.913Z,100648.31
2022-10-16T16:56:19.307Z,100645.50
2022-10-16T16:58:51.154Z,100641.81
2022-10-16T17:01:21.362Z,100649.44
2022-10-16T17:03:53.126Z,100650.47
2022-10-16T17:06:24.799Z,100653.22
2022-10-16T17:08:53.598Z,100657.06
2022-10-16T17:11:24.122Z,100661.69
2022-10-16T17:13:56.800Z,100668.75
2022-10-16T17:16:27.091Z,100674.59
2022-10-16T17:18:55.648Z,100677.06
2022-10-16T17:21:27.081Z,100673.31
2022-10-16T17:23:55.712Z,100686.59
2022-10-16T17:26:24.186Z,100701.94
2022-10-16T17:28:54.699Z,100704.44
2022-10-16T17:31:24.853Z,100702.59
2022-10-16T17:33:53.594Z,100699.06
2022-10-16T17:36:23.358Z,100709.88
2022-10-16T17:38:53.356Z,100709.50
2022-10-16T17:41:23.613Z,100711.91
2022-10-16T17:43:53.096Z,100715.81
2022-10-16T17:46:24.526Z,100722.56
2022-10-16T17:48:56.001Z,100722.16
2022-10-16T17:51:28.197Z,100721.88
2022-10-16T17:53:59.720Z,100717.28
2022-10-16T17:56:29.209Z,100720.94
2022-10-16T17:59:01.070Z,100726.69
2022-10-16T18:01:31.657Z,100735.28
2022-10-16T18:04:01.650Z,100734.84
2022-10-16T18:06:31.447Z,100732.81
2022-10-16T18:09:02.290Z,100738.81
2022-10-16T18:11:31.209Z,100734.47
2022-10-16T18:14:00.927Z,100736.50
2022-10-16T18:16:31.385Z,100741.88
2022-10-16T18:19:01.065Z,100745.59
2022-10-16T18:21:30.074Z,100740.59
2022-10-16T18:24:01.694Z,100748.81
2022-10-16T18:26:30.531Z,100748.00
2022-10-16T18:29:00.832Z,100763.47
2022-10-16T18:31:29.340Z,100761.16
2022-10-16T18:33:59.172Z,100758.19
2022-10-16T18:36:30.518Z,100761.91
2022-10-16T18:39:00.098Z,100760.59
2022-10-16T18:41:32.898Z,100753.94
2022-10-16T18:44:01.817Z,100770.22
2022-10-16T18:46:30.894Z,100760.69
2022-10-16T18:49:00.790Z,100766.22
2022-10-16T18:51:32.288Z,100774.81
2022-10-16T18:54:03.303Z,100772.44
2022-10-16T18:56:34.049Z,100780.94
2022-10-16T18:59:04.598Z,100790.66
2022-10-16T19:01:35.482Z,100776.50
2022-10-16T19:04:06.796Z,100792.06
2022-10-16T19:06:37.720Z,100793.91
2022-10-16T19:09:08.820Z,100796.28
2022-10-16T19:11:41.597Z,100796.50
2022-10-16T19:14:10.973Z,100805.34
2022-10-16T19:16:40.804Z,100810.63
2022-10-16T19:19:11.779Z,100806.09
2022-10-16T19:21:41.671Z,100808.50
2022-10-16T19:24:14.150Z,100811.72
2022-10-16T19:26:44.853Z,100807.09
2022-10-16T19:29:13.742Z,100815.31
2022-10-16T19:31:42.697Z,100826.25
2022-10-16T19:34:15.755Z,100816.69
2022-10-16T19:36:44.315Z,100830.09
2022-10-16T19:39:16.088Z,100826.78
2022-10-16T19:41:47.642Z,100826.13
2022-10-16T19:44:17.953Z,100829.53
2022-10-16T19:46:48.412Z,100832.56
2022-10-16T19:49:21.924Z,100834.59
2022-10-16T19:51:52.010Z,100837.59
2022-10-16T19:54:20.620Z,100840.66
2022-10-16T19:56:52.790Z,100838.16
2022-10-16T19:59:21.506Z,100857.94
2022-10-16T20:01:50.102Z,100854.41
2022-10-16T20:04:18.683Z,100860.41
2022-10-16T20:06:47.483Z,100864.31
2022-10-16T20:09:16.117Z,100861.13
2022-10-16T20:11:44.723Z,100860.31
2022-10-16T20:14:15.241Z,100860.69
2022-10-16T20:16:43.834Z,100860.84
2022-10-16T20:19:12.975Z,100866.56
2022-10-16T20:21:41.771Z,100873.28
2022-10-16T20:24:10.424Z,100885.22
2022-10-16T20:26:39.291Z,100887.25
2022-10-16T20:29:08.335Z,100892.75
2022-10-16T20:31:38.947Z,100894.63
2022-10-16T20:34:09.270Z,100894.44
2022-10-16T20:36:39.098Z,100910.50
2022-10-16T20:39:08.576Z,100910.50
2022-10-16T20:41:37.221Z,100913.03
2022-10-16T20:44:05.904Z,100896.16
2022-10-16T20:46:35.019Z,100898.81
2022-10-16T20:49:11.545Z,100909.84
2022-10-16T20:51:45.823Z,100906.88
2022-10-16T20:54:14.472Z,100912.88
2022-10-16T20:56:46.017Z,100914.09
2022-10-16T20:59:14.710Z,100905.91
2022-10-16T21:01:43.310Z,100899.22
2022-10-16T21:04:13.635Z,100905.94
2022-10-16T21:06:42.394Z,100902.97
2022-10-16T21:09:10.943Z,100909.38
2022-10-16T21:11:40.419Z,100912.06
2022-10-16T21:14:10.877Z,100910.72
2022-10-16T21:16:39.448Z,100905.41
2022-10-16T21:19:08.515Z,100907.44
2022-10-16T21:21:39.496Z,100910.44
2022-10-16T21:24:12.228Z,100908.13
2022-10-16T21:26:43.585Z,100910.13
2022-10-16T21:29:12.331Z,100912.16
2022-10-16T21:31:41.605Z,100912.81
2022-10-16T21:34:10.171Z,100912.16
2022-10-16T21:36:42.074Z,100908.50
2022-10-16T21:39:12.430Z,100917.88
2022-10-16T21:41:41.569Z,100913.22
2022-10-16T21:44:10.880Z,100918.91
2022-10-16T21:46:41.850Z,100921.56
2022-10-16T21:49:14.182Z,100931.56
2022-10-16T21:51:46.816Z,100927.19
2022-10-16T21:54:17.454Z,100926.19
2022-10-16T21:56:45.995Z,100936.59
2022-10-16T21:59:15.712Z,100944.81
2022-10-16T22:01:44.725Z,100940.66
2022-10-16T22:04:14.218Z,100938.84
2022-10-16T22:06:45.057Z,100947.34
2022-10-16T22:09:14.888Z,100948.22
2022-10-16T22:11:44.910Z,100948.03
2022-10-16T22:14:15.583Z,100954.38
2022-10-16T22:16:44.265Z,100961.72
2022-10-16T22:19:13.833Z,100964.75
2022-10-16T22:21:46.260Z,100965.75
2022-10-16T22:24:15.262Z,100958.25
2022-10-16T22:26:43.911Z,100954.03
2022-10-16T22:29:14.490Z,100947.38
2022-10-16T22:31:43.086Z,100955.06
2022-10-16T22:34:14.933Z,100960.91
2022-10-16T22:36:45.162Z,100961.41
2022-10-16T22:39:13.690Z,100953.72
2022-10-16T22:41:42.394Z,100949.38
2022-10-16T22:44:13.969Z,100946.69
2022-10-16T22:46:42.568Z,100941.00
2022-10-16T22:49:11.277Z,100948.03
2022-10-16T22:51:39.751Z,100946.69
2022-10-16T22:54:09.710Z,100949.34
2022-10-16T22:56:38.324Z,100943.00
2022-10-16T22:59:07.110Z,100954.72
2022-10-16T23:01:37.350Z,100953.03
2022-10-16T23:04:06.439Z,100946.03
2022-10-16T23:06:35.026Z,100958.06
2022-10-16T23:09:04.789Z,100955.22
2022-10-16T23:11:37.609Z,100947.69
2022-10-16T23:14:06.481Z,100943.16
2022-10-16T23:16:35.005Z,100951.69
2022-10-16T23:19:03.530Z,100949.53
2022-10-16T23:21:32.078Z,100936.84
2022-10-16T23:24:01.700Z,100950.03
2022-10-16T23:26:30.378Z,100951.03
2022-10-16T23:29:00.546Z,100958.84
2022-10-16T23:31:30.360Z,100957.78
2022-10-16T23:33:59.409Z,100967.72
2022-10-16T23:36:28.124Z,100974.41
2022-10-16T23:38:56.940Z,100981.25
2022-10-16T23:41:25.320Z,100986.28
2022-10-16T23:43:54.111Z,100988.28
2022-10-16T23:48:53.485Z,101005.63
2022-10-16T23:51:22.122Z,101006.63
2022-10-16T23:53:50.540Z,101002.09
2022-10-16T23:56:19.056Z,100989.56
2022-10-16T23:58:47.727Z,101003.28
